This is the latest recevied weather packets stored in our database for station/object PY2CQC-13. If no packets are shown the sender has not sent any weather packets the latest 10 day(s).
| Time | Temp. | Humidity | Pressure | Rain* | Wind** | Luminosity | Snow |
|---|---|---|---|---|---|---|---|
| 1777114925 | 22.78° C | 69% | 1032.9 hPa | - | - | - | - |
| 1777113125 | 22.22° C | 71% | 1032.6 hPa | - | - | - | - |
| 1777111325 | 21.11° C | 74% | 1032.3 hPa | - | - | - | - |
| 1777109525 | 23.89° C | 64% | 1032 hPa | - | - | - | - |
| 1777107724 | 23.89° C | 64% | 1031.7 hPa | - | - | - | - |
| 1777105924 | 23.89° C | 63% | 1031.4 hPa | - | - | - | - |
| 1777104124 | 24.44° C | 63% | 1031.3 hPa | - | - | - | - |
| 1777102325 | 24.44° C | 62% | 1031.4 hPa | - | - | - | - |
| 1777100525 | 24.44° C | 62% | 1031.3 hPa | - | - | - | - |
| 1777098725 | 24.44° C | 62% | 1031.5 hPa | - | - | - | - |
| 1777096924 | 24.44° C | 62% | 1031.5 hPa | - | - | - | - |
| 1777095124 | 25° C | 62% | 1031.5 hPa | - | - | - | - |
| 1777093324 | 25° C | 63% | 1031.5 hPa | - | - | - | - |
| 1777091525 | 25° C | 63% | 1031.6 hPa | - | - | - | - |
| 1777089725 | 25° C | 63% | 1032 hPa | - | - | - | - |
| 1777087925 | 25° C | 63% | 1032.1 hPa | - | - | - | - |
| 1777086125 | 25° C | 62% | 1032.3 hPa | - | - | - | - |
| 1777084326 | 25.56° C | 62% | 1032.3 hPa | - | - | - | - |
| 1777082525 | 25.56° C | 61% | 1032.5 hPa | - | - | - | - |
| 1777080724 | 23.33° C | 68% | 1032.7 hPa | - | - | - | - |
| 1777078925 | 23.89° C | 66% | 1032.8 hPa | - | - | - | - |
| 1777077125 | 23.89° C | 66% | 1032.7 hPa | - | - | - | - |
| 1777075325 | 24.44° C | 65% | 1032.8 hPa | - | - | - | - |
| 1777073525 | 24.44° C | 64% | 1032.8 hPa | - | - | - | - |
| 1777071724 | 25° C | 63% | 1032.6 hPa | - | - | - | - |
* Rain since midnight (hover to see other rain measurements)
** Current wind speed in m/s (hover to see current wind gust speed)